createdAt,value
2023-04-17T00:01:11.780Z,59.95
2023-04-17T00:03:38.403Z,59.96
2023-04-17T00:06:05.407Z,59.92
2023-04-17T00:08:33.961Z,59.88
2023-04-17T00:11:07.998Z,59.97
2023-04-17T00:13:36.089Z,59.88
2023-04-17T00:16:02.940Z,59.80
2023-04-17T00:18:29.786Z,59.73
2023-04-17T00:20:56.867Z,59.81
2023-04-17T00:23:23.893Z,59.86
2023-04-17T00:25:50.532Z,60.09
2023-04-17T00:28:17.208Z,59.88
2023-04-17T00:30:43.781Z,59.96
2023-04-17T00:33:10.520Z,59.92
2023-04-17T00:35:37.234Z,60.06
2023-04-17T00:38:04.972Z,60.19
2023-04-17T00:40:31.553Z,59.97
2023-04-17T00:43:04.514Z,60.02
2023-04-17T00:45:31.451Z,60.13
2023-04-17T00:47:59.147Z,59.90
2023-04-17T00:50:27.396Z,59.98
2023-04-17T00:52:54.625Z,59.88
2023-04-17T00:55:21.740Z,59.87
2023-04-17T00:57:51.632Z,59.96
2023-04-17T01:00:18.569Z,59.96
2023-04-17T01:02:46.702Z,60.11
2023-04-17T01:05:13.689Z,60.05
2023-04-17T01:07:44.076Z,60.00
2023-04-17T01:10:10.848Z,60.01
2023-04-17T01:12:37.561Z,60.02
2023-04-17T01:15:05.051Z,59.94
2023-04-17T01:17:32.246Z,59.97
2023-04-17T01:19:58.829Z,60.05
2023-04-17T01:22:25.786Z,59.96
2023-04-17T01:24:56.606Z,59.84
2023-04-17T01:27:26.228Z,59.98
2023-04-17T01:29:52.889Z,59.90
2023-04-17T01:32:20.237Z,59.92
2023-04-17T01:34:46.845Z,59.96
2023-04-17T01:37:13.403Z,60.00
2023-04-17T01:39:40.691Z,59.97
2023-04-17T01:42:07.415Z,60.03
2023-04-17T01:44:34.102Z,60.02
2023-04-17T01:47:00.996Z,60.10
2023-04-17T01:49:27.609Z,59.90
2023-04-17T01:51:54.340Z,60.11
2023-04-17T01:54:21.326Z,60.01
2023-04-17T01:56:48.247Z,60.04
2023-04-17T01:59:14.944Z,60.01
2023-04-17T02:01:41.937Z,59.97
2023-04-17T02:04:08.830Z,60.03
2023-04-17T02:06:35.935Z,59.93
2023-04-17T02:09:03.080Z,60.19
2023-04-17T02:11:29.856Z,60.16
2023-04-17T02:13:56.501Z,60.25
2023-04-17T02:16:23.173Z,60.56
2023-04-17T02:18:50.343Z,60.33
2023-04-17T02:21:16.996Z,60.18
2023-04-17T02:23:43.868Z,60.34
2023-04-17T02:26:10.698Z,60.42
2023-04-17T02:28:37.164Z,60.35
2023-04-17T02:31:08.620Z,60.34
2023-04-17T02:33:39.038Z,60.21
2023-04-17T02:36:07.037Z,60.17
2023-04-17T02:38:39.262Z,60.09
2023-04-17T02:41:06.478Z,60.08
2023-04-17T02:43:33.813Z,60.17
2023-04-17T02:46:01.477Z,60.18
2023-04-17T02:48:28.333Z,60.21
2023-04-17T02:50:55.286Z,60.10
2023-04-17T02:53:22.338Z,60.16
2023-04-17T02:55:49.660Z,60.09
2023-04-17T02:58:19.040Z,60.33
2023-04-17T03:00:45.970Z,60.07
2023-04-17T03:03:16.191Z,60.13
2023-04-17T03:05:43.137Z,60.25
2023-04-17T03:08:11.029Z,60.10
2023-04-17T03:10:49.324Z,60.10
2023-04-17T03:13:16.152Z,60.12
2023-04-17T03:15:42.784Z,60.12
2023-04-17T03:18:09.404Z,60.18
2023-04-17T03:20:36.340Z,60.15
2023-04-17T03:23:02.915Z,60.15
2023-04-17T03:25:29.512Z,60.08
2023-04-17T03:27:56.639Z,60.27
2023-04-17T03:30:30.889Z,60.17
2023-04-17T03:33:01.262Z,60.35
2023-04-17T03:35:30.003Z,60.20
2023-04-17T03:37:56.678Z,60.21
2023-04-17T03:40:23.919Z,60.27
2023-04-17T03:42:50.567Z,60.43
2023-04-17T03:45:17.143Z,60.31
2023-04-17T03:47:44.059Z,60.23
2023-04-17T03:50:11.306Z,60.38
2023-04-17T03:52:44.022Z,60.30
2023-04-17T03:55:11.437Z,60.41
2023-04-17T03:57:38.472Z,60.36
2023-04-17T04:00:10.501Z,60.34
2023-04-17T04:02:49.009Z,60.40
2023-04-17T04:05:19.941Z,60.45
2023-04-17T04:07:47.224Z,60.51
2023-04-17T04:10:21.463Z,60.56
2023-04-17T04:12:48.066Z,60.39
2023-04-17T04:15:15.603Z,60.48
2023-04-17T04:17:44.924Z,60.52
2023-04-17T04:20:12.146Z,60.46
2023-04-17T04:22:41.571Z,60.39
2023-04-17T04:25:08.395Z,60.35
2023-04-17T04:27:49.739Z,60.14
2023-04-17T04:30:21.754Z,60.48
2023-04-17T04:32:51.524Z,60.60
2023-04-17T04:35:18.357Z,60.66
2023-04-17T04:37:46.452Z,60.73
2023-04-17T04:40:16.620Z,60.79
2023-04-17T04:42:49.445Z,60.92
2023-04-17T04:45:21.172Z,60.91
2023-04-17T04:47:47.872Z,60.97
2023-04-17T04:50:14.691Z,61.13
2023-04-17T04:52:41.237Z,61.05
2023-04-17T04:55:39.915Z,61.16
2023-04-17T04:58:06.580Z,61.07
2023-04-17T05:00:35.471Z,61.32
2023-04-17T05:03:03.001Z,61.33
2023-04-17T05:05:30.089Z,61.35
2023-04-17T05:07:56.835Z,61.23
2023-04-17T05:10:27.791Z,61.40
2023-04-17T05:12:59.179Z,61.27
2023-04-17T05:15:27.141Z,61.16
2023-04-17T05:17:54.475Z,61.07
2023-04-17T05:20:21.829Z,61.07
2023-04-17T05:22:53.453Z,61.11
2023-04-17T05:25:22.614Z,61.10
2023-04-17T05:27:49.557Z,61.19
2023-04-17T05:30:17.039Z,61.07
2023-04-17T05:32:46.668Z,61.17
2023-04-17T05:35:32.199Z,61.16
2023-04-17T05:37:59.559Z,61.10
2023-04-17T05:40:26.161Z,61.16
2023-04-17T05:42:52.856Z,61.03
2023-04-17T05:45:19.576Z,61.24
2023-04-17T05:47:46.477Z,60.97
2023-04-17T05:50:14.523Z,61.17
2023-04-17T05:52:41.422Z,61.07
2023-04-17T05:55:10.581Z,61.06
2023-04-17T05:57:38.150Z,61.03
2023-04-17T06:00:13.201Z,60.97
2023-04-17T06:02:48.992Z,61.22
2023-04-17T06:05:24.780Z,61.09
2023-04-17T06:07:51.892Z,60.99
2023-04-17T06:10:18.673Z,61.13
2023-04-17T06:12:45.451Z,61.12
2023-04-17T06:15:12.569Z,61.11
2023-04-17T06:17:39.582Z,60.91
2023-04-17T06:20:10.237Z,60.99
2023-04-17T06:22:37.392Z,61.07
2023-04-17T06:25:11.666Z,61.02
2023-04-17T06:27:38.907Z,61.04
2023-04-17T06:30:05.814Z,61.05
2023-04-17T06:32:43.300Z,61.20
2023-04-17T06:35:12.789Z,61.16
2023-04-17T06:37:47.725Z,61.09
2023-04-17T06:40:14.538Z,61.11
2023-04-17T06:42:41.206Z,60.76
2023-04-17T06:45:12.116Z,60.35
2023-04-17T06:47:38.773Z,60.78
2023-04-17T06:50:05.841Z,60.70
2023-04-17T06:52:34.502Z,61.11
2023-04-17T06:55:02.345Z,60.75
2023-04-17T06:57:29.239Z,60.92
2023-04-17T06:59:55.793Z,60.87
2023-04-17T07:02:22.585Z,60.90
2023-04-17T07:04:49.389Z,60.70
2023-04-17T07:07:16.286Z,60.72
2023-04-17T07:09:44.172Z,60.63
2023-04-17T07:12:10.898Z,60.60
2023-04-17T07:14:38.274Z,60.66
2023-04-17T07:17:04.984Z,60.58
2023-04-17T07:19:32.384Z,60.40
2023-04-17T07:21:59.058Z,60.48
2023-04-17T07:24:25.698Z,60.45
2023-04-17T07:26:52.379Z,60.43
2023-04-17T07:29:19.180Z,60.49
2023-04-17T07:31:46.226Z,60.42
2023-04-17T07:34:13.132Z,60.34
2023-04-17T07:36:39.859Z,60.47
2023-04-17T07:39:08.072Z,60.34
2023-04-17T07:41:34.882Z,60.37
2023-04-17T07:44:03.572Z,60.43
2023-04-17T07:46:30.199Z,60.44
2023-04-17T07:48:56.832Z,60.42
2023-04-17T07:51:23.393Z,60.35
2023-04-17T07:53:50.164Z,60.30
2023-04-17T07:56:17.577Z,60.40
2023-04-17T07:58:45.235Z,60.26
2023-04-17T08:01:11.822Z,60.38
2023-04-17T08:03:41.614Z,60.31
2023-04-17T08:06:08.508Z,60.23
2023-04-17T08:08:35.048Z,60.27
2023-04-17T08:11:01.644Z,60.30
2023-04-17T08:13:29.733Z,60.21
2023-04-17T08:15:56.387Z,60.13
2023-04-17T08:18:22.996Z,60.32
2023-04-17T08:20:52.198Z,60.12
2023-04-17T08:23:18.732Z,60.30
2023-04-17T08:25:45.844Z,60.19
2023-04-17T08:28:12.425Z,60.23
2023-04-17T08:30:39.123Z,60.10
2023-04-17T08:33:05.916Z,60.13
2023-04-17T08:35:32.632Z,60.10
2023-04-17T08:38:00.199Z,60.08
2023-04-17T08:40:26.826Z,59.92
2023-04-17T08:42:54.377Z,60.09
2023-04-17T08:45:22.871Z,59.96
2023-04-17T08:47:49.507Z,59.89
2023-04-17T08:50:17.714Z,59.93
2023-04-17T08:52:50.961Z,59.88
2023-04-17T08:55:19.614Z,59.94
2023-04-17T08:58:01.404Z,59.85
2023-04-17T09:00:28.896Z,59.83
2023-04-17T09:02:57.135Z,59.68
2023-04-17T09:05:24.274Z,59.75
2023-04-17T09:07:51.892Z,59.68
2023-04-17T09:10:18.737Z,59.81
2023-04-17T09:12:59.004Z,59.60
2023-04-17T09:15:25.957Z,59.74
2023-04-17T09:17:52.734Z,59.70
2023-04-17T09:20:19.629Z,59.63
2023-04-17T09:22:46.427Z,59.58
2023-04-17T09:25:20.760Z,59.64
2023-04-17T09:27:47.561Z,59.52
2023-04-17T09:30:14.261Z,59.61
2023-04-17T09:32:41.041Z,59.46
2023-04-17T09:35:08.135Z,59.50
2023-04-17T09:37:49.988Z,59.43
2023-04-17T09:40:17.212Z,59.47
2023-04-17T09:42:56.964Z,59.38
2023-04-17T09:45:24.616Z,59.39
2023-04-17T09:47:52.343Z,59.46
2023-04-17T09:50:22.415Z,59.53
2023-04-17T09:52:50.589Z,59.54
2023-04-17T09:55:21.297Z,59.40
2023-04-17T09:57:49.537Z,59.37
2023-04-17T10:00:17.615Z,59.43
2023-04-17T10:02:44.959Z,59.38
2023-04-17T10:05:11.889Z,59.32
2023-04-17T10:07:39.104Z,59.35
2023-04-17T10:10:09.415Z,59.29
2023-04-17T10:12:37.001Z,59.33
2023-04-17T10:15:04.710Z,59.66
2023-04-17T10:17:32.701Z,58.98
2023-04-17T10:20:20.423Z,58.92
2023-04-17T10:22:57.016Z,58.82
2023-04-17T10:25:27.578Z,58.85
2023-04-17T10:27:55.511Z,58.75
2023-04-17T10:30:23.166Z,58.71
2023-04-17T10:33:10.265Z,59.01
2023-04-17T10:35:36.901Z,58.69
2023-04-17T10:38:05.250Z,58.54
2023-04-17T10:40:32.858Z,58.40
2023-04-17T10:43:04.235Z,58.47
2023-04-17T10:45:49.348Z,58.49
2023-04-17T10:48:45.066Z,58.42
2023-04-17T10:51:20.764Z,58.67
2023-04-17T10:53:51.449Z,58.73
2023-04-17T10:56:23.887Z,58.80
2023-04-17T10:59:01.916Z,58.86
2023-04-17T11:01:29.492Z,58.84
2023-04-17T11:03:56.728Z,58.85
2023-04-17T11:06:27.309Z,58.81
2023-04-17T11:08:55.691Z,58.92
2023-04-17T11:11:35.302Z,58.87
2023-04-17T11:14:12.884Z,58.91
2023-04-17T11:16:42.122Z,58.85
2023-04-17T11:19:13.244Z,59.21
2023-04-17T11:21:42.474Z,58.70
2023-04-17T11:24:09.212Z,58.72
2023-04-17T11:26:45.355Z,58.41
2023-04-17T11:29:15.465Z,58.45
2023-04-17T11:31:42.258Z,58.20
2023-04-17T11:34:09.796Z,58.44
2023-04-17T11:36:36.454Z,58.52
2023-04-17T11:39:03.924Z,58.42
2023-04-17T11:41:37.740Z,58.45
2023-04-17T11:44:04.323Z,58.13
2023-04-17T11:46:31.100Z,58.51
2023-04-17T11:48:57.771Z,58.35
2023-04-17T11:51:26.226Z,58.23
2023-04-17T11:53:52.775Z,58.27
2023-04-17T11:56:19.949Z,58.21
2023-04-17T11:58:50.648Z,58.16
2023-04-17T12:01:18.643Z,58.13
2023-04-17T12:03:45.851Z,57.93
2023-04-17T12:06:13.258Z,57.67
2023-04-17T12:08:42.674Z,58.23
2023-04-17T12:11:14.962Z,58.38
2023-04-17T12:13:41.485Z,58.49
2023-04-17T12:16:08.162Z,58.49
2023-04-17T12:18:34.724Z,58.49
2023-04-17T12:21:01.289Z,58.46
2023-04-17T12:23:27.879Z,58.42
2023-04-17T12:25:54.472Z,58.49
2023-04-17T12:28:22.191Z,58.54
2023-04-17T12:30:48.856Z,58.45
2023-04-17T12:33:15.603Z,58.49
2023-04-17T12:35:42.223Z,58.64
2023-04-17T12:38:09.216Z,58.55
2023-04-17T12:40:35.908Z,58.55
2023-04-17T12:43:04.229Z,58.67
2023-04-17T12:45:30.923Z,58.67
2023-04-17T12:47:57.893Z,58.54
2023-04-17T12:50:25.245Z,58.50
2023-04-17T12:52:51.813Z,58.40
2023-04-17T12:55:18.562Z,58.47
2023-04-17T12:57:46.207Z,58.58
2023-04-17T13:00:13.285Z,58.42
2023-04-17T13:02:40.645Z,58.31
2023-04-17T13:05:07.581Z,58.37
2023-04-17T13:07:34.517Z,58.38
2023-04-17T13:10:01.272Z,58.38
2023-04-17T13:12:27.806Z,58.38
2023-04-17T13:14:54.370Z,58.39
2023-04-17T13:17:21.352Z,58.29
2023-04-17T13:19:48.004Z,58.27
2023-04-17T13:22:16.048Z,58.29
2023-04-17T13:24:42.717Z,58.37
2023-04-17T13:27:09.968Z,58.38
2023-04-17T13:29:36.631Z,58.28
2023-04-17T13:32:03.301Z,58.38
2023-04-17T13:34:29.883Z,58.25
2023-04-17T13:36:56.548Z,58.07
2023-04-17T13:39:23.172Z,57.87
2023-04-17T13:41:49.730Z,57.88
2023-04-17T13:44:17.520Z,57.86
2023-04-17T13:46:44.590Z,57.84
2023-04-17T13:49:11.730Z,58.05
2023-04-17T13:51:38.646Z,57.97
2023-04-17T13:54:05.342Z,57.85
2023-04-17T13:56:31.965Z,57.88
2023-04-17T13:58:58.498Z,57.82
2023-04-17T14:01:25.241Z,57.89
2023-04-17T14:03:52.258Z,57.82
2023-04-17T14:06:19.076Z,57.76
2023-04-17T14:08:46.194Z,58.15
2023-04-17T14:11:14.096Z,57.72
2023-04-17T14:13:40.947Z,57.44
2023-04-17T14:16:07.908Z,57.37
2023-04-17T14:18:34.579Z,57.24
2023-04-17T14:21:01.297Z,56.99
2023-04-17T14:23:28.256Z,56.87
2023-04-17T14:25:55.040Z,57.00
2023-04-17T14:28:22.412Z,56.67
2023-04-17T14:30:49.048Z,56.41
2023-04-17T14:33:15.609Z,56.35
2023-04-17T14:35:42.278Z,56.14
2023-04-17T14:38:08.920Z,56.02
2023-04-17T14:40:35.724Z,55.84
2023-04-17T14:43:02.546Z,55.98
2023-04-17T14:45:29.683Z,56.10
2023-04-17T14:47:56.496Z,56.35
2023-04-17T14:50:23.312Z,56.31
2023-04-17T14:52:50.010Z,56.48
2023-04-17T14:55:16.734Z,56.61
2023-04-17T14:57:43.610Z,56.69
2023-04-17T15:00:10.590Z,56.83
2023-04-17T15:02:39.116Z,56.80
2023-04-17T15:05:06.550Z,56.81
2023-04-17T15:07:33.121Z,56.89
2023-04-17T15:09:59.765Z,56.83
2023-04-17T15:12:27.171Z,56.68
2023-04-17T15:14:53.905Z,56.79
2023-04-17T15:17:21.031Z,56.76
2023-04-17T15:19:47.799Z,56.88
2023-04-17T15:22:14.549Z,56.85
2023-04-17T15:24:41.215Z,56.58
2023-04-17T15:27:07.786Z,56.64
2023-04-17T15:29:34.572Z,56.47
2023-04-17T15:32:02.484Z,56.43
2023-04-17T15:34:29.161Z,56.47
2023-04-17T15:36:55.784Z,56.42
2023-04-17T15:39:23.322Z,56.37
2023-04-17T15:41:50.618Z,56.08
2023-04-17T15:44:17.331Z,55.82
2023-04-17T15:46:44.052Z,55.77
2023-04-17T15:49:10.826Z,55.22
2023-04-17T15:51:39.053Z,55.13
2023-04-17T15:54:07.914Z,55.26
2023-04-17T15:56:34.738Z,55.31
2023-04-17T15:59:01.294Z,55.19
2023-04-17T16:01:28.689Z,55.36
2023-04-17T16:03:55.584Z,55.51
2023-04-17T16:06:22.468Z,55.49
2023-04-17T16:08:49.135Z,55.62
2023-04-17T16:11:15.756Z,55.49
2023-04-17T16:13:42.306Z,55.58
2023-04-17T16:16:08.943Z,55.38
2023-04-17T16:18:35.630Z,55.47
2023-04-17T16:21:03.087Z,55.58
2023-04-17T16:23:29.963Z,55.66
2023-04-17T16:25:56.546Z,55.83
2023-04-17T16:28:23.826Z,55.66
2023-04-17T16:30:50.603Z,55.33
2023-04-17T16:33:17.242Z,55.42
2023-04-17T16:35:43.735Z,55.14
2023-04-17T16:38:10.393Z,55.36
2023-04-17T16:40:37.034Z,55.25
2023-04-17T16:43:03.567Z,55.14
2023-04-17T16:45:30.098Z,54.96
2023-04-17T16:47:56.902Z,55.15
2023-04-17T16:50:25.472Z,55.21
2023-04-17T16:52:52.343Z,55.20
2023-04-17T16:55:18.906Z,54.87
2023-04-17T16:57:46.805Z,54.92
2023-04-17T17:00:13.907Z,55.34
2023-04-17T17:02:40.904Z,55.23
2023-04-17T17:05:08.190Z,55.46
2023-04-17T17:07:34.754Z,55.50
2023-04-17T17:10:01.730Z,55.56
2023-04-17T17:12:28.486Z,55.68
2023-04-17T17:14:55.310Z,55.82
2023-04-17T17:17:22.000Z,55.51
2023-04-17T17:19:49.128Z,55.44
2023-04-17T17:22:15.983Z,55.35
2023-04-17T17:24:43.135Z,55.47
2023-04-17T17:27:09.833Z,55.54
2023-04-17T17:29:36.380Z,55.64
2023-04-17T17:32:02.994Z,55.73
2023-04-17T17:34:30.497Z,55.80
2023-04-17T17:36:57.298Z,55.94
2023-04-17T17:39:23.928Z,55.91
2023-04-17T17:41:50.743Z,56.01
2023-04-17T17:44:17.599Z,56.16
2023-04-17T17:46:44.272Z,56.40
2023-04-17T17:49:10.916Z,56.22
2023-04-17T17:51:37.625Z,56.42
2023-04-17T17:54:04.123Z,56.51
2023-04-17T17:56:30.806Z,56.33
2023-04-17T17:58:57.405Z,56.50
2023-04-17T18:01:25.047Z,56.55
2023-04-17T18:03:52.956Z,56.42
2023-04-17T18:06:20.413Z,56.50
2023-04-17T18:08:47.170Z,56.44
2023-04-17T18:11:14.005Z,56.50
2023-04-17T18:13:40.600Z,56.68
2023-04-17T18:16:07.544Z,56.61
2023-04-17T18:18:34.173Z,56.73
2023-04-17T18:21:05.298Z,56.75
2023-04-17T18:23:31.784Z,56.87
2023-04-17T18:25:58.804Z,56.80
2023-04-17T18:28:26.148Z,56.86
2023-04-17T18:30:52.809Z,56.82
2023-04-17T18:33:19.430Z,56.85
2023-04-17T18:35:46.124Z,56.85
2023-04-17T18:38:12.730Z,56.99
2023-04-17T18:40:39.276Z,56.98
2023-04-17T18:43:06.212Z,57.08
2023-04-17T18:45:32.776Z,56.94
2023-04-17T18:47:59.483Z,57.08
2023-04-17T18:50:27.049Z,57.02
2023-04-17T18:52:53.570Z,57.13
2023-04-17T18:55:20.215Z,57.15
2023-04-17T18:57:46.828Z,57.10
2023-04-17T19:00:13.490Z,57.26
2023-04-17T19:02:40.746Z,57.19
2023-04-17T19:05:07.857Z,57.21
2023-04-17T19:07:34.512Z,57.24
2023-04-17T19:10:01.097Z,57.30
2023-04-17T19:12:27.794Z,57.36
2023-04-17T19:14:57.099Z,57.38
2023-04-17T19:17:25.493Z,57.30
2023-04-17T19:19:52.229Z,57.37
2023-04-17T19:22:18.850Z,57.36
2023-04-17T19:24:49.722Z,57.49
2023-04-17T19:27:16.787Z,57.45
2023-04-17T19:29:43.434Z,57.48
2023-04-17T19:32:10.782Z,57.57
2023-04-17T19:34:37.384Z,57.54
2023-04-17T19:37:04.427Z,57.49
2023-04-17T19:39:31.207Z,57.63
2023-04-17T19:41:58.136Z,57.58
2023-04-17T19:44:26.568Z,57.71
2023-04-17T19:46:54.403Z,57.65
2023-04-17T19:49:20.958Z,57.75
2023-04-17T19:51:47.581Z,57.79
2023-04-17T19:54:15.395Z,57.73
2023-04-17T19:56:41.968Z,57.78
2023-04-17T19:59:12.552Z,57.80
2023-04-17T20:01:41.400Z,57.83
2023-04-17T20:04:09.871Z,57.81
2023-04-17T20:06:36.572Z,57.86
2023-04-17T20:09:04.729Z,57.99
2023-04-17T20:11:31.304Z,57.83
2023-04-17T20:13:58.118Z,57.97
2023-04-17T20:16:25.133Z,57.99
2023-04-17T20:18:52.106Z,57.91
2023-04-17T20:21:18.833Z,57.83
2023-04-17T20:23:46.865Z,58.01
2023-04-17T20:26:13.491Z,58.17
2023-04-17T20:28:40.305Z,58.11
2023-04-17T20:31:07.066Z,58.19
2023-04-17T20:33:33.833Z,58.35
2023-04-17T20:36:00.760Z,58.37
2023-04-17T20:38:27.446Z,58.53
2023-04-17T20:40:54.158Z,58.57
2023-04-17T20:43:20.768Z,58.60
2023-04-17T20:45:49.276Z,58.67
2023-04-17T20:48:16.550Z,58.64
2023-04-17T20:50:43.270Z,58.86
2023-04-17T20:53:09.981Z,58.83
2023-04-17T20:55:37.782Z,59.10
2023-04-17T20:58:04.392Z,59.01
2023-04-17T21:00:31.116Z,58.95
2023-04-17T21:02:57.780Z,59.05
2023-04-17T21:05:24.814Z,59.04
2023-04-17T21:07:51.800Z,59.19
2023-04-17T21:10:20.023Z,59.13
2023-04-17T21:12:47.021Z,59.23
2023-04-17T21:15:13.628Z,59.30
2023-04-17T21:17:40.312Z,59.34
2023-04-17T21:20:07.466Z,59.39
2023-04-17T21:22:34.140Z,59.39
2023-04-17T21:25:00.864Z,59.49
2023-04-17T21:27:27.569Z,59.35
2023-04-17T21:29:54.317Z,59.45
2023-04-17T21:32:21.107Z,59.47
2023-04-17T21:34:47.932Z,59.50
2023-04-17T21:37:14.564Z,59.46
2023-04-17T21:39:41.275Z,59.47
2023-04-17T21:42:09.754Z,59.52
2023-04-17T21:44:36.384Z,59.51
2023-04-17T21:47:03.031Z,59.32
2023-04-17T21:49:29.691Z,59.42
2023-04-17T21:51:56.888Z,59.52
2023-04-17T21:54:25.368Z,59.39
2023-04-17T21:56:52.034Z,59.65
2023-04-17T21:59:18.838Z,59.75
2023-04-17T22:01:45.565Z,59.35
2023-04-17T22:04:12.317Z,59.66
2023-04-17T22:06:39.029Z,59.47
2023-04-17T22:09:05.688Z,59.43
2023-04-17T22:11:32.427Z,59.55
2023-04-17T22:13:59.025Z,59.74
2023-04-17T22:16:25.652Z,59.71
2023-04-17T22:18:52.183Z,59.60
2023-04-17T22:21:18.764Z,59.71
2023-04-17T22:23:45.316Z,59.79
2023-04-17T22:26:11.944Z,59.70
2023-04-17T22:28:38.836Z,59.83
2023-04-17T22:31:05.681Z,59.70
2023-04-17T22:33:32.239Z,59.75
2023-04-17T22:35:58.786Z,59.67
2023-04-17T22:38:25.281Z,59.63
2023-04-17T22:40:51.923Z,59.56
2023-04-17T22:43:18.631Z,59.59
2023-04-17T22:45:45.410Z,59.76
2023-04-17T22:48:12.105Z,59.76
2023-04-17T22:50:39.311Z,59.82
2023-04-17T22:53:06.015Z,59.92
2023-04-17T22:55:33.145Z,59.94
2023-04-17T22:58:02.003Z,60.01
2023-04-17T23:00:29.745Z,60.11
2023-04-17T23:02:56.452Z,60.08
2023-04-17T23:05:23.171Z,59.96
2023-04-17T23:07:50.542Z,60.16
2023-04-17T23:10:17.203Z,60.05
2023-04-17T23:12:43.940Z,60.07
2023-04-17T23:15:10.822Z,60.12
2023-04-17T23:17:37.525Z,60.11
2023-04-17T23:20:04.748Z,60.18
2023-04-17T23:22:31.261Z,60.24
2023-04-17T23:24:57.790Z,60.02
2023-04-17T23:27:24.350Z,60.09
2023-04-17T23:29:50.928Z,60.36
2023-04-17T23:32:17.478Z,60.37
2023-04-17T23:34:44.211Z,60.32
2023-04-17T23:37:10.994Z,60.29
2023-04-17T23:39:37.674Z,60.45
2023-04-17T23:42:07.234Z,60.24
2023-04-17T23:44:34.684Z,60.32
2023-04-17T23:47:01.748Z,60.43
2023-04-17T23:49:28.457Z,60.41
2023-04-17T23:51:54.910Z,60.33
2023-04-17T23:54:21.676Z,60.28
2023-04-17T23:56:48.165Z,60.31
2023-04-17T23:59:14.717Z,60.44
